sensor_id;sensor_type;location;lat;lon;timestamp;temperature;humidity
76291;DHT22;65100;46.884;17.410;2023-11-21T00:00:22;5.73;87.99
76291;DHT22;65100;46.884;17.410;2023-11-21T00:02:47;5.69;88.12
76291;DHT22;65100;46.884;17.410;2023-11-21T00:05:14;5.68;88.30
76291;DHT22;65100;46.884;17.410;2023-11-21T00:07:40;5.69;88.67
76291;DHT22;65100;46.884;17.410;2023-11-21T00:10:06;5.62;89.24
76291;DHT22;65100;46.884;17.410;2023-11-21T00:12:33;5.63;89.25
76291;DHT22;65100;46.884;17.410;2023-11-21T00:14:59;5.56;89.27
76291;DHT22;65100;46.884;17.410;2023-11-21T00:17:24;5.79;88.82
76291;DHT22;65100;46.884;17.410;2023-11-21T00:19:50;5.86;88.05
76291;DHT22;65100;46.884;17.410;2023-11-21T00:22:19;5.62;89.60
76291;DHT22;65100;46.884;17.410;2023-11-21T00:24:45;5.82;89.26
76291;DHT22;65100;46.884;17.410;2023-11-21T00:27:10;6.22;87.92
76291;DHT22;65100;46.884;17.410;2023-11-21T00:29:36;6.20;87.83
76291;DHT22;65100;46.884;17.410;2023-11-21T00:32:01;6.26;87.71
76291;DHT22;65100;46.884;17.410;2023-11-21T00:34:27;6.15;88.10
76291;DHT22;65100;46.884;17.410;2023-11-21T00:36:52;6.51;86.98
76291;DHT22;65100;46.884;17.410;2023-11-21T00:39:18;6.63;85.59
76291;DHT22;65100;46.884;17.410;2023-11-21T00:41:43;6.17;86.19
76291;DHT22;65100;46.884;17.410;2023-11-21T00:44:10;6.39;86.67
76291;DHT22;65100;46.884;17.410;2023-11-21T00:46:36;6.33;86.59
76291;DHT22;65100;46.884;17.410;2023-11-21T00:49:02;6.34;87.06
76291;DHT22;65100;46.884;17.410;2023-11-21T00:51:29;6.50;86.54
76291;DHT22;65100;46.884;17.410;2023-11-21T00:53:55;6.47;86.20
76291;DHT22;65100;46.884;17.410;2023-11-21T00:56:20;6.60;86.46
76291;DHT22;65100;46.884;17.410;2023-11-21T00:58:46;6.39;86.84
76291;DHT22;65100;46.884;17.410;2023-11-21T01:01:15;6.51;86.94
76291;DHT22;65100;46.884;17.410;2023-11-21T01:03:41;6.43;86.14
76291;DHT22;65100;46.884;17.410;2023-11-21T01:06:07;6.40;86.70
76291;DHT22;65100;46.884;17.410;2023-11-21T01:08:32;6.37;86.72
76291;DHT22;65100;46.884;17.410;2023-11-21T01:10:58;6.43;86.75
76291;DHT22;65100;46.884;17.410;2023-11-21T01:13:23;6.41;87.10
76291;DHT22;65100;46.884;17.410;2023-11-21T01:15:48;6.44;86.78
76291;DHT22;65100;46.884;17.410;2023-11-21T01:18:14;6.53;86.70
76291;DHT22;65100;46.884;17.410;2023-11-21T01:20:39;6.44;86.88
76291;DHT22;65100;46.884;17.410;2023-11-21T01:23:05;6.57;86.73
76291;DHT22;65100;46.884;17.410;2023-11-21T01:25:30;6.63;87.07
76291;DHT22;65100;46.884;17.410;2023-11-21T01:27:56;6.51;87.02
76291;DHT22;65100;46.884;17.410;2023-11-21T01:30:21;6.53;87.42
76291;DHT22;65100;46.884;17.410;2023-11-21T01:32:47;6.63;87.00
76291;DHT22;65100;46.884;17.410;2023-11-21T01:35:12;6.66;86.92
76291;DHT22;65100;46.884;17.410;2023-11-21T01:37:38;6.60;87.40
76291;DHT22;65100;46.884;17.410;2023-11-21T01:40:04;6.60;87.33
76291;DHT22;65100;46.884;17.410;2023-11-21T01:42:34;6.60;87.30
76291;DHT22;65100;46.884;17.410;2023-11-21T01:45:00;6.41;88.36
76291;DHT22;65100;46.884;17.410;2023-11-21T01:47:30;6.51;88.27
76291;DHT22;65100;46.884;17.410;2023-11-21T01:49:56;6.61;87.84
76291;DHT22;65100;46.884;17.410;2023-11-21T01:52:21;6.53;88.16
76291;DHT22;65100;46.884;17.410;2023-11-21T01:54:47;6.60;88.24
76291;DHT22;65100;46.884;17.410;2023-11-21T01:57:13;6.64;88.10
76291;DHT22;65100;46.884;17.410;2023-11-21T01:59:40;6.66;87.87
76291;DHT22;65100;46.884;17.410;2023-11-21T02:02:07;6.44;88.65
76291;DHT22;65100;46.884;17.410;2023-11-21T02:04:33;6.43;88.59
76291;DHT22;65100;46.884;17.410;2023-11-21T02:07:00;6.88;87.88
76291;DHT22;65100;46.884;17.410;2023-11-21T02:09:26;6.80;86.78
76291;DHT22;65100;46.884;17.410;2023-11-21T02:11:55;6.81;86.82
76291;DHT22;65100;46.884;17.410;2023-11-21T02:14:21;6.83;87.22
76291;DHT22;65100;46.884;17.410;2023-11-21T02:16:49;6.84;86.91
76291;DHT22;65100;46.884;17.410;2023-11-21T02:19:18;6.69;87.77
76291;DHT22;65100;46.884;17.410;2023-11-21T02:21:56;6.70;87.80
76291;DHT22;65100;46.884;17.410;2023-11-21T02:24:23;6.56;88.53
76291;DHT22;65100;46.884;17.410;2023-11-21T02:26:49;6.60;88.60
76291;DHT22;65100;46.884;17.410;2023-11-21T02:29:21;6.74;88.28
76291;DHT22;65100;46.884;17.410;2023-11-21T02:31:55;6.83;88.11
76291;DHT22;65100;46.884;17.410;2023-11-21T02:34:22;6.87;87.89
76291;DHT22;65100;46.884;17.410;2023-11-21T02:36:48;6.69;88.40
76291;DHT22;65100;46.884;17.410;2023-11-21T02:39:17;6.71;87.99
76291;DHT22;65100;46.884;17.410;2023-11-21T02:41:43;6.69;88.74
76291;DHT22;65100;46.884;17.410;2023-11-21T02:44:09;6.77;88.27
76291;DHT22;65100;46.884;17.410;2023-11-21T02:46:36;6.57;89.36
76291;DHT22;65100;46.884;17.410;2023-11-21T02:49:05;6.71;88.82
76291;DHT22;65100;46.884;17.410;2023-11-21T02:51:35;6.84;88.09
76291;DHT22;65100;46.884;17.410;2023-11-21T02:54:01;6.77;88.32
76291;DHT22;65100;46.884;17.410;2023-11-21T02:56:30;6.79;87.87
76291;DHT22;65100;46.884;17.410;2023-11-21T02:58:56;6.77;88.04
76291;DHT22;65100;46.884;17.410;2023-11-21T03:01:21;6.88;88.04
76291;DHT22;65100;46.884;17.410;2023-11-21T03:03:48;6.66;88.34
76291;DHT22;65100;46.884;17.410;2023-11-21T03:06:17;6.54;89.44
76291;DHT22;65100;46.884;17.410;2023-11-21T03:08:42;6.91;88.30
76291;DHT22;65100;46.884;17.410;2023-11-21T03:11:08;7.04;87.72
76291;DHT22;65100;46.884;17.410;2023-11-21T03:13:33;7.09;87.23
76291;DHT22;65100;46.884;17.410;2023-11-21T03:15:59;7.12;87.65
76291;DHT22;65100;46.884;17.410;2023-11-21T03:18:24;6.95;88.11
76291;DHT22;65100;46.884;17.410;2023-11-21T03:20:52;6.88;88.00
76291;DHT22;65100;46.884;17.410;2023-11-21T03:23:18;6.88;88.38
76291;DHT22;65100;46.884;17.410;2023-11-21T03:25:44;7.14;88.25
76291;DHT22;65100;46.884;17.410;2023-11-21T03:28:09;7.28;87.75
76291;DHT22;65100;46.884;17.410;2023-11-21T03:30:35;7.14;87.11
76291;DHT22;65100;46.884;17.410;2023-11-21T03:33:00;7.15;87.61
76291;DHT22;65100;46.884;17.410;2023-11-21T03:35:26;7.19;87.64
76291;DHT22;65100;46.884;17.410;2023-11-21T03:37:51;6.91;88.75
76291;DHT22;65100;46.884;17.410;2023-11-21T03:40:17;7.07;88.30
76291;DHT22;65100;46.884;17.410;2023-11-21T03:42:42;6.95;88.65
76291;DHT22;65100;46.884;17.410;2023-11-21T03:45:08;7.01;88.34
76291;DHT22;65100;46.884;17.410;2023-11-21T03:47:34;7.12;88.22
76291;DHT22;65100;46.884;17.410;2023-11-21T03:49:59;6.90;88.54
76291;DHT22;65100;46.884;17.410;2023-11-21T03:52:25;6.70;89.41
76291;DHT22;65100;46.884;17.410;2023-11-21T03:54:50;6.63;89.69
76291;DHT22;65100;46.884;17.410;2023-11-21T03:57:16;6.77;89.58
76291;DHT22;65100;46.884;17.410;2023-11-21T03:59:43;6.88;89.16
76291;DHT22;65100;46.884;17.410;2023-11-21T04:02:08;7.03;88.54
76291;DHT22;65100;46.884;17.410;2023-11-21T04:04:35;7.09;88.00
76291;DHT22;65100;46.884;17.410;2023-11-21T04:07:00;6.80;89.11
76291;DHT22;65100;46.884;17.410;2023-11-21T04:09:26;6.98;88.94
76291;DHT22;65100;46.884;17.410;2023-11-21T04:11:52;7.34;87.58
76291;DHT22;65100;46.884;17.410;2023-11-21T04:14:18;7.48;86.98
76291;DHT22;65100;46.884;17.410;2023-11-21T04:16:43;7.29;87.41
76291;DHT22;65100;46.884;17.410;2023-11-21T04:19:09;7.15;88.26
76291;DHT22;65100;46.884;17.410;2023-11-21T04:21:36;7.14;88.45
76291;DHT22;65100;46.884;17.410;2023-11-21T04:24:01;7.41;87.56
76291;DHT22;65100;46.884;17.410;2023-11-21T04:26:27;7.39;87.87
76291;DHT22;65100;46.884;17.410;2023-11-21T04:28:52;7.38;88.06
76291;DHT22;65100;46.884;17.410;2023-11-21T04:31:18;7.56;87.53
76291;DHT22;65100;46.884;17.410;2023-11-21T04:33:43;7.51;88.31
76291;DHT22;65100;46.884;17.410;2023-11-21T04:36:10;7.31;88.37
76291;DHT22;65100;46.884;17.410;2023-11-21T04:38:35;7.19;89.43
76291;DHT22;65100;46.884;17.410;2023-11-21T04:41:01;7.35;88.77
76291;DHT22;65100;46.884;17.410;2023-11-21T04:43:26;7.42;89.39
76291;DHT22;65100;46.884;17.410;2023-11-21T04:45:52;7.41;88.61
76291;DHT22;65100;46.884;17.410;2023-11-21T04:48:17;7.42;88.02
76291;DHT22;65100;46.884;17.410;2023-11-21T04:50:43;7.61;87.67
76291;DHT22;65100;46.884;17.410;2023-11-21T04:53:08;7.62;87.69
76291;DHT22;65100;46.884;17.410;2023-11-21T04:55:33;7.68;87.62
76291;DHT22;65100;46.884;17.410;2023-11-21T04:57:59;7.75;87.22
76291;DHT22;65100;46.884;17.410;2023-11-21T05:00:24;7.82;86.88
76291;DHT22;65100;46.884;17.410;2023-11-21T05:02:50;7.81;87.08
76291;DHT22;65100;46.884;17.410;2023-11-21T05:05:15;7.65;89.33
76291;DHT22;65100;46.884;17.410;2023-11-21T05:07:41;7.59;90.34
76291;DHT22;65100;46.884;17.410;2023-11-21T05:10:08;7.92;88.94
76291;DHT22;65100;46.884;17.410;2023-11-21T05:12:36;7.96;88.33
76291;DHT22;65100;46.884;17.410;2023-11-21T05:15:06;7.97;88.30
76291;DHT22;65100;46.884;17.410;2023-11-21T05:17:38;8.09;88.27
76291;DHT22;65100;46.884;17.410;2023-11-21T05:20:07;8.07;88.45
76291;DHT22;65100;46.884;17.410;2023-11-21T05:22:35;8.13;88.81
76291;DHT22;65100;46.884;17.410;2023-11-21T05:25:02;8.20;88.36
76291;DHT22;65100;46.884;17.410;2023-11-21T05:27:31;7.94;89.72
76291;DHT22;65100;46.884;17.410;2023-11-21T05:29:57;7.73;91.07
76291;DHT22;65100;46.884;17.410;2023-11-21T05:32:23;7.81;91.41
76291;DHT22;65100;46.884;17.410;2023-11-21T05:34:49;8.12;90.29
76291;DHT22;65100;46.884;17.410;2023-11-21T05:37:14;8.19;90.23
76291;DHT22;65100;46.884;17.410;2023-11-21T05:40:01;8.20;90.28
76291;DHT22;65100;46.884;17.410;2023-11-21T05:42:31;8.43;89.27
76291;DHT22;65100;46.884;17.410;2023-11-21T05:45:18;8.20;89.85
76291;DHT22;65100;46.884;17.410;2023-11-21T05:47:45;8.07;90.03
76291;DHT22;65100;46.884;17.410;2023-11-21T05:50:13;8.23;89.68
76291;DHT22;65100;46.884;17.410;2023-11-21T05:52:44;7.94;90.98
76291;DHT22;65100;46.884;17.410;2023-11-21T05:55:10;8.32;89.96
76291;DHT22;65100;46.884;17.410;2023-11-21T05:57:36;8.32;89.17
76291;DHT22;65100;46.884;17.410;2023-11-21T06:00:07;8.27;88.68
76291;DHT22;65100;46.884;17.410;2023-11-21T06:02:51;8.17;89.65
76291;DHT22;65100;46.884;17.410;2023-11-21T06:05:19;8.20;89.54
76291;DHT22;65100;46.884;17.410;2023-11-21T06:07:44;8.41;88.82
76291;DHT22;65100;46.884;17.410;2023-11-21T06:10:11;8.47;88.26
76291;DHT22;65100;46.884;17.410;2023-11-21T06:12:38;8.40;88.52
76291;DHT22;65100;46.884;17.410;2023-11-21T06:15:06;8.36;88.70
76291;DHT22;65100;46.884;17.410;2023-11-21T06:17:34;8.44;88.01
76291;DHT22;65100;46.884;17.410;2023-11-21T06:20:06;8.30;88.01
76291;DHT22;65100;46.884;17.410;2023-11-21T06:22:38;8.44;87.57
76291;DHT22;65100;46.884;17.410;2023-11-21T06:25:04;8.46;87.01
76291;DHT22;65100;46.884;17.410;2023-11-21T06:27:43;8.17;87.81
76291;DHT22;65100;46.884;17.410;2023-11-21T06:30:10;8.10;88.80
76291;DHT22;65100;46.884;17.410;2023-11-21T06:32:37;7.87;89.98
76291;DHT22;65100;46.884;17.410;2023-11-21T06:35:04;8.20;89.04
76291;DHT22;65100;46.884;17.410;2023-11-21T06:37:30;8.17;89.77
76291;DHT22;65100;46.884;17.410;2023-11-21T06:39:57;8.07;89.68
76291;DHT22;65100;46.884;17.410;2023-11-21T06:42:23;8.19;89.16
76291;DHT22;65100;46.884;17.410;2023-11-21T06:44:49;8.23;89.03
76291;DHT22;65100;46.884;17.410;2023-11-21T06:47:17;8.17;89.34
76291;DHT22;65100;46.884;17.410;2023-11-21T06:49:43;8.10;90.98
76291;DHT22;65100;46.884;17.410;2023-11-21T06:52:08;8.23;90.98
76291;DHT22;65100;46.884;17.410;2023-11-21T06:54:34;8.10;91.24
76291;DHT22;65100;46.884;17.410;2023-11-21T06:57:00;7.90;91.67
76291;DHT22;65100;46.884;17.410;2023-11-21T06:59:28;7.94;91.25
76291;DHT22;65100;46.884;17.410;2023-11-21T07:01:53;8.22;90.53
76291;DHT22;65100;46.884;17.410;2023-11-21T07:04:19;8.20;90.35
76291;DHT22;65100;46.884;17.410;2023-11-21T07:06:45;8.37;90.53
76291;DHT22;65100;46.884;17.410;2023-11-21T07:09:11;8.14;91.21
76291;DHT22;65100;46.884;17.410;2023-11-21T07:11:37;8.13;91.82
76291;DHT22;65100;46.884;17.410;2023-11-21T07:14:03;8.30;90.26
76291;DHT22;65100;46.884;17.410;2023-11-21T07:16:36;8.16;90.81
76291;DHT22;65100;46.884;17.410;2023-11-21T07:19:05;8.27;90.69
76291;DHT22;65100;46.884;17.410;2023-11-21T07:21:36;8.27;90.79
76291;DHT22;65100;46.884;17.410;2023-11-21T07:24:03;8.51;89.59
76291;DHT22;65100;46.884;17.410;2023-11-21T07:26:29;8.32;89.31
76291;DHT22;65100;46.884;17.410;2023-11-21T07:28:55;8.09;90.49
76291;DHT22;65100;46.884;17.410;2023-11-21T07:31:22;8.30;90.70
76291;DHT22;65100;46.884;17.410;2023-11-21T07:33:47;8.23;91.10
76291;DHT22;65100;46.884;17.410;2023-11-21T07:36:13;8.32;91.06
76291;DHT22;65100;46.884;17.410;2023-11-21T07:38:39;8.27;91.79
76291;DHT22;65100;46.884;17.410;2023-11-21T07:41:05;8.58;90.28
76291;DHT22;65100;46.884;17.410;2023-11-21T07:43:34;8.54;90.12
76291;DHT22;65100;46.884;17.410;2023-11-21T07:46:04;8.41;90.40
76291;DHT22;65100;46.884;17.410;2023-11-21T07:48:30;8.63;90.34
76291;DHT22;65100;46.884;17.410;2023-11-21T07:50:57;8.68;90.25
76291;DHT22;65100;46.884;17.410;2023-11-21T07:53:26;8.56;90.70
76291;DHT22;65100;46.884;17.410;2023-11-21T07:55:54;8.26;92.50
76291;DHT22;65100;46.884;17.410;2023-11-21T07:58:20;8.20;93.07
76291;DHT22;65100;46.884;17.410;2023-11-21T08:00:45;8.43;92.18
76291;DHT22;65100;46.884;17.410;2023-11-21T08:03:10;8.63;91.52
76291;DHT22;65100;46.884;17.410;2023-11-21T08:05:36;8.43;92.23
76291;DHT22;65100;46.884;17.410;2023-11-21T08:08:02;8.26;93.13
76291;DHT22;65100;46.884;17.410;2023-11-21T08:10:27;8.46;92.75
76291;DHT22;65100;46.884;17.410;2023-11-21T08:12:53;8.67;91.67
76291;DHT22;65100;46.884;17.410;2023-11-21T08:15:19;8.78;91.39
76291;DHT22;65100;46.884;17.410;2023-11-21T08:17:45;8.77;91.29
76291;DHT22;65100;46.884;17.410;2023-11-21T08:20:11;8.61;91.99
76291;DHT22;65100;46.884;17.410;2023-11-21T08:22:37;8.63;92.31
76291;DHT22;65100;46.884;17.410;2023-11-21T08:25:03;8.85;91.40
76291;DHT22;65100;46.884;17.410;2023-11-21T08:27:31;8.82;91.36
76291;DHT22;65100;46.884;17.410;2023-11-21T08:29:56;8.92;90.77
76291;DHT22;65100;46.884;17.410;2023-11-21T08:32:22;8.98;90.42
76291;DHT22;65100;46.884;17.410;2023-11-21T08:34:48;9.10;90.10
76291;DHT22;65100;46.884;17.410;2023-11-21T08:37:16;9.05;90.18
76291;DHT22;65100;46.884;17.410;2023-11-21T08:39:43;8.89;90.71
76291;DHT22;65100;46.884;17.410;2023-11-21T08:42:09;8.88;91.21
76291;DHT22;65100;46.884;17.410;2023-11-21T08:44:34;8.80;91.29
76291;DHT22;65100;46.884;17.410;2023-11-21T08:47:00;8.91;91.30
76291;DHT22;65100;46.884;17.410;2023-11-21T08:49:25;8.95;91.04
76291;DHT22;65100;46.884;17.410;2023-11-21T08:51:53;8.85;91.71
76291;DHT22;65100;46.884;17.410;2023-11-21T08:54:20;8.98;91.18
76291;DHT22;65100;46.884;17.410;2023-11-21T08:56:46;9.22;90.04
76291;DHT22;65100;46.884;17.410;2023-11-21T08:59:11;9.16;90.31
76291;DHT22;65100;46.884;17.410;2023-11-21T09:01:40;8.84;91.64
76291;DHT22;65100;46.884;17.410;2023-11-21T09:04:06;8.95;91.28
76291;DHT22;65100;46.884;17.410;2023-11-21T09:06:31;9.14;90.75
76291;DHT22;65100;46.884;17.410;2023-11-21T09:08:57;9.32;89.61
76291;DHT22;65100;46.884;17.410;2023-11-21T09:11:23;9.24;89.49
76291;DHT22;65100;46.884;17.410;2023-11-21T09:13:50;9.02;90.76
76291;DHT22;65100;46.884;17.410;2023-11-21T09:16:16;8.94;91.42
76291;DHT22;65100;46.884;17.410;2023-11-21T09:18:42;9.04;91.30
76291;DHT22;65100;46.884;17.410;2023-11-21T09:21:08;9.14;91.02
76291;DHT22;65100;46.884;17.410;2023-11-21T09:23:34;9.19;91.09
76291;DHT22;65100;46.884;17.410;2023-11-21T09:26:00;9.19;91.05
76291;DHT22;65100;46.884;17.410;2023-11-21T09:28:26;9.14;90.59
76291;DHT22;65100;46.884;17.410;2023-11-21T09:30:53;9.12;90.79
76291;DHT22;65100;46.884;17.410;2023-11-21T09:33:18;9.12;90.79
76291;DHT22;65100;46.884;17.410;2023-11-21T09:35:44;9.18;91.51
76291;DHT22;65100;46.884;17.410;2023-11-21T09:38:10;9.40;90.51
76291;DHT22;65100;46.884;17.410;2023-11-21T09:40:36;9.28;90.83
76291;DHT22;65100;46.884;17.410;2023-11-21T09:43:06;9.32;90.97
76291;DHT22;65100;46.884;17.410;2023-11-21T09:45:35;9.43;90.09
76291;DHT22;65100;46.884;17.410;2023-11-21T09:48:01;9.45;90.11
76291;DHT22;65100;46.884;17.410;2023-11-21T09:50:27;9.39;90.05
76291;DHT22;65100;46.884;17.410;2023-11-21T09:53:19;9.21;90.31
76291;DHT22;65100;46.884;17.410;2023-11-21T09:55:51;9.25;91.52
76291;DHT22;65100;46.884;17.410;2023-11-21T09:58:18;9.26;91.00
76291;DHT22;65100;46.884;17.410;2023-11-21T10:00:46;9.38;91.75
76291;DHT22;65100;46.884;17.410;2023-11-21T10:03:12;9.55;91.39
76291;DHT22;65100;46.884;17.410;2023-11-21T10:05:38;9.63;91.65
76291;DHT22;65100;46.884;17.410;2023-11-21T10:08:11;9.65;90.81
76291;DHT22;65100;46.884;17.410;2023-11-21T10:10:37;9.50;90.45
76291;DHT22;65100;46.884;17.410;2023-11-21T10:13:06;9.63;90.28
76291;DHT22;65100;46.884;17.410;2023-11-21T10:15:35;9.69;89.14
76291;DHT22;65100;46.884;17.410;2023-11-21T10:18:06;9.46;89.12
76291;DHT22;65100;46.884;17.410;2023-11-21T10:20:33;9.73;89.18
76291;DHT22;65100;46.884;17.410;2023-11-21T10:22:59;9.52;89.35
76291;DHT22;65100;46.884;17.410;2023-11-21T10:25:27;9.43;89.36
76291;DHT22;65100;46.884;17.410;2023-11-21T10:27:58;9.50;89.44
76291;DHT22;65100;46.884;17.410;2023-11-21T10:30:35;9.60;88.94
76291;DHT22;65100;46.884;17.410;2023-11-21T10:33:03;9.65;88.69
76291;DHT22;65100;46.884;17.410;2023-11-21T10:38:07;9.93;88.54
76291;DHT22;65100;46.884;17.410;2023-11-21T10:40:38;10.09;88.09
76291;DHT22;65100;46.884;17.410;2023-11-21T10:43:08;10.33;87.01
76291;DHT22;65100;46.884;17.410;2023-11-21T10:45:51;10.40;86.75
76291;DHT22;65100;46.884;17.410;2023-11-21T10:48:17;10.37;87.01
76291;DHT22;65100;46.884;17.410;2023-11-21T10:50:46;10.26;87.27
76291;DHT22;65100;46.884;17.410;2023-11-21T10:53:12;10.29;87.36
76291;DHT22;65100;46.884;17.410;2023-11-21T10:55:38;10.23;87.32
76291;DHT22;65100;46.884;17.410;2023-11-21T10:58:05;10.04;87.79
76291;DHT22;65100;46.884;17.410;2023-11-21T11:00:32;10.41;87.46
76291;DHT22;65100;46.884;17.410;2023-11-21T11:02:59;10.38;86.43
76291;DHT22;65100;46.884;17.410;2023-11-21T11:05:27;10.61;86.04
76291;DHT22;65100;46.884;17.410;2023-11-21T11:08:08;10.32;86.92
76291;DHT22;65100;46.884;17.410;2023-11-21T11:10:37;10.24;86.29
76291;DHT22;65100;46.884;17.410;2023-11-21T11:13:04;10.17;86.89
76291;DHT22;65100;46.884;17.410;2023-11-21T11:15:32;10.38;87.15
76291;DHT22;65100;46.884;17.410;2023-11-21T11:17:58;10.64;85.72
76291;DHT22;65100;46.884;17.410;2023-11-21T11:20:30;10.61;85.68
76291;DHT22;65100;46.884;17.410;2023-11-21T11:23:19;10.81;85.28
76291;DHT22;65100;46.884;17.410;2023-11-21T11:26:07;10.51;86.26
76291;DHT22;65100;46.884;17.410;2023-11-21T11:31:27;10.68;85.98
76291;DHT22;65100;46.884;17.410;2023-11-21T11:36:52;10.82;85.51
76291;DHT22;65100;46.884;17.410;2023-11-21T11:39:30;10.90;84.78
76291;DHT22;65100;46.884;17.410;2023-11-21T11:41:57;10.98;84.38
76291;DHT22;65100;46.884;17.410;2023-11-21T11:44:54;10.80;84.68
76291;DHT22;65100;46.884;17.410;2023-11-21T11:47:26;10.77;85.56
76291;DHT22;65100;46.884;17.410;2023-11-21T11:50:02;10.70;85.58
76291;DHT22;65100;46.884;17.410;2023-11-21T11:52:48;10.74;85.60
76291;DHT22;65100;46.884;17.410;2023-11-21T11:55:16;10.82;85.37
76291;DHT22;65100;46.884;17.410;2023-11-21T11:57:51;10.92;85.71
76291;DHT22;65100;46.884;17.410;2023-11-21T12:02:54;10.85;85.78
76291;DHT22;65100;46.884;17.410;2023-11-21T12:05:20;10.78;86.42
76291;DHT22;65100;46.884;17.410;2023-11-21T12:07:52;10.68;86.74
76291;DHT22;65100;46.884;17.410;2023-11-21T12:10:23;10.65;86.72
76291;DHT22;65100;46.884;17.410;2023-11-21T12:12:55;10.88;86.29
76291;DHT22;65100;46.884;17.410;2023-11-21T12:15:22;11.07;86.22
76291;DHT22;65100;46.884;17.410;2023-11-21T12:17:49;11.16;85.90
76291;DHT22;65100;46.884;17.410;2023-11-21T12:20:18;11.01;86.41
76291;DHT22;65100;46.884;17.410;2023-11-21T12:22:48;11.05;86.79
76291;DHT22;65100;46.884;17.410;2023-11-21T12:25:24;11.24;85.48
76291;DHT22;65100;46.884;17.410;2023-11-21T12:27:51;11.32;85.16
76291;DHT22;65100;46.884;17.410;2023-11-21T12:30:19;11.40;83.98
76291;DHT22;65100;46.884;17.410;2023-11-21T12:32:47;11.75;83.55
76291;DHT22;65100;46.884;17.410;2023-11-21T12:35:13;11.87;81.77
76291;DHT22;65100;46.884;17.410;2023-11-21T12:37:40;11.89;81.93
76291;DHT22;65100;46.884;17.410;2023-11-21T12:40:08;11.90;81.67
76291;DHT22;65100;46.884;17.410;2023-11-21T12:42:52;11.92;81.66
76291;DHT22;65100;46.884;17.410;2023-11-21T12:45:25;11.87;81.46
76291;DHT22;65100;46.884;17.410;2023-11-21T12:47:59;11.83;81.20
76291;DHT22;65100;46.884;17.410;2023-11-21T12:50:27;11.79;80.14
76291;DHT22;65100;46.884;17.410;2023-11-21T12:53:08;11.80;80.05
76291;DHT22;65100;46.884;17.410;2023-11-21T12:55:43;11.76;79.56
76291;DHT22;65100;46.884;17.410;2023-11-21T12:58:15;11.79;80.37
76291;DHT22;65100;46.884;17.410;2023-11-21T13:00:48;11.86;80.33
76291;DHT22;65100;46.884;17.410;2023-11-21T13:03:16;11.83;79.49
76291;DHT22;65100;46.884;17.410;2023-11-21T13:05:44;11.75;79.04
76291;DHT22;65100;46.884;17.410;2023-11-21T13:08:12;11.76;79.16
76291;DHT22;65100;46.884;17.410;2023-11-21T13:10:43;11.68;78.13
76291;DHT22;65100;46.884;17.410;2023-11-21T13:13:13;11.68;79.59
76291;DHT22;65100;46.884;17.410;2023-11-21T13:15:50;11.63;77.33
76291;DHT22;65100;46.884;17.410;2023-11-21T13:18:15;11.65;78.23
76291;DHT22;65100;46.884;17.410;2023-11-21T13:20:42;11.62;79.04
76291;DHT22;65100;46.884;17.410;2023-11-21T13:23:09;11.55;78.66
76291;DHT22;65100;46.884;17.410;2023-11-21T13:25:37;11.48;78.47
76291;DHT22;65100;46.884;17.410;2023-11-21T13:28:04;11.43;77.68
76291;DHT22;65100;46.884;17.410;2023-11-21T13:30:30;11.43;76.58
76291;DHT22;65100;46.884;17.410;2023-11-21T13:33:03;11.40;76.98
76291;DHT22;65100;46.884;17.410;2023-11-21T13:35:35;11.48;75.93
76291;DHT22;65100;46.884;17.410;2023-11-21T13:38:09;11.51;76.72
76291;DHT22;65100;46.884;17.410;2023-11-21T13:40:36;11.51;77.40
76291;DHT22;65100;46.884;17.410;2023-11-21T13:43:11;11.40;77.27
76291;DHT22;65100;46.884;17.410;2023-11-21T13:45:41;11.46;78.08
76291;DHT22;65100;46.884;17.410;2023-11-21T13:48:07;11.49;77.14
76291;DHT22;65100;46.884;17.410;2023-11-21T13:50:37;11.48;77.21
76291;DHT22;65100;46.884;17.410;2023-11-21T13:53:03;11.46;78.34
76291;DHT22;65100;46.884;17.410;2023-11-21T13:55:44;11.39;77.99
76291;DHT22;65100;46.884;17.410;2023-11-21T13:58:10;11.36;78.77
76291;DHT22;65100;46.884;17.410;2023-11-21T14:00:42;11.32;79.62
76291;DHT22;65100;46.884;17.410;2023-11-21T14:03:11;11.25;79.07
76291;DHT22;65100;46.884;17.410;2023-11-21T14:05:45;11.25;79.55
76291;DHT22;65100;46.884;17.410;2023-11-21T14:08:13;11.12;79.56
76291;DHT22;65100;46.884;17.410;2023-11-21T14:10:42;11.11;79.71
76291;DHT22;65100;46.884;17.410;2023-11-21T14:13:16;11.08;79.93
76291;DHT22;65100;46.884;17.410;2023-11-21T14:15:42;11.01;80.84
76291;DHT22;65100;46.884;17.410;2023-11-21T14:18:11;10.95;80.52
76291;DHT22;65100;46.884;17.410;2023-11-21T14:20:37;10.87;81.20
76291;DHT22;65100;46.884;17.410;2023-11-21T14:23:04;10.68;81.30
76291;DHT22;65100;46.884;17.410;2023-11-21T14:25:31;10.64;81.27
76291;DHT22;65100;46.884;17.410;2023-11-21T14:27:58;10.58;81.52
76291;DHT22;65100;46.884;17.410;2023-11-21T14:30:23;10.63;81.31
76291;DHT22;65100;46.884;17.410;2023-11-21T14:32:48;10.68;80.64
76291;DHT22;65100;46.884;17.410;2023-11-21T14:35:15;10.61;80.59
76291;DHT22;65100;46.884;17.410;2023-11-21T14:37:42;10.51;80.90
76291;DHT22;65100;46.884;17.410;2023-11-21T14:40:08;10.56;80.79
76291;DHT22;65100;46.884;17.410;2023-11-21T14:42:34;10.54;80.66
76291;DHT22;65100;46.884;17.410;2023-11-21T14:45:04;10.47;80.78
76291;DHT22;65100;46.884;17.410;2023-11-21T14:47:32;10.56;80.69
76291;DHT22;65100;46.884;17.410;2023-11-21T14:50:02;10.53;80.65
76291;DHT22;65100;46.884;17.410;2023-11-21T14:52:47;10.47;81.07
76291;DHT22;65100;46.884;17.410;2023-11-21T14:55:20;10.48;81.19
76291;DHT22;65100;46.884;17.410;2023-11-21T14:57:56;10.46;81.46
76291;DHT22;65100;46.884;17.410;2023-11-21T15:00:22;10.44;81.62
76291;DHT22;65100;46.884;17.410;2023-11-21T15:03:00;10.48;81.93
76291;DHT22;65100;46.884;17.410;2023-11-21T15:05:26;10.41;82.18
76291;DHT22;65100;46.884;17.410;2023-11-21T15:07:53;10.47;81.90
76291;DHT22;65100;46.884;17.410;2023-11-21T15:10:22;10.46;82.00
76291;DHT22;65100;46.884;17.410;2023-11-21T15:12:54;10.33;82.11
76291;DHT22;65100;46.884;17.410;2023-11-21T15:15:20;10.32;82.44
76291;DHT22;65100;46.884;17.410;2023-11-21T15:17:46;10.33;82.79
76291;DHT22;65100;46.884;17.410;2023-11-21T15:20:13;10.23;82.82
76291;DHT22;65100;46.884;17.410;2023-11-21T15:22:44;10.14;82.87
76291;DHT22;65100;46.884;17.410;2023-11-21T15:25:10;10.12;82.62
76291;DHT22;65100;46.884;17.410;2023-11-21T15:27:36;10.04;82.88
76291;DHT22;65100;46.884;17.410;2023-11-21T15:30:05;10.07;83.37
76291;DHT22;65100;46.884;17.410;2023-11-21T15:32:31;10.03;83.62
76291;DHT22;65100;46.884;17.410;2023-11-21T15:34:56;10.02;83.48
76291;DHT22;65100;46.884;17.410;2023-11-21T15:37:22;9.94;83.94
76291;DHT22;65100;46.884;17.410;2023-11-21T15:39:47;9.89;83.84
76291;DHT22;65100;46.884;17.410;2023-11-21T15:42:13;9.86;84.22